Time;durP1;ratioP1;P1;durP2;ratioP2;P2;SDS_P1;SDS_P2;PMS_P1;PMS_P2;Temp;Humidity;BMP_temperature;BMP_pressure;BME280_temperature;BME280_humidity;BME280_pressure;Samples;Min_cycle;Max_cycle;Signal;HPM_P1;HPM_P2
2023/05/10 00:02:07;;;;;;;223.55;57.40;;;;;;;-144.87;100.00;61487.56;4965421;28;20078;-76
2023/05/10 00:04:34;;;;;;;221.70;59.75;;;;;;;-144.87;100.00;61487.56;4948416;28;20081;-75
2023/05/10 00:07:00;;;;;;;246.55;60.88;;;;;;;-144.87;100.00;61487.56;4917287;28;20047;-75
2023/05/10 00:09:26;;;;;;;236.75;58.25;;;;;;;-144.87;100.00;61487.56;4940287;28;20051;-75
2023/05/10 00:11:53;;;;;;;238.38;59.17;;;;;;;-144.87;100.00;61487.56;4949458;28;20504;-75
2023/05/10 00:14:19;;;;;;;239.88;59.72;;;;;;;-144.87;100.00;61487.56;4932985;28;20392;-75
2023/05/10 00:16:46;;;;;;;261.77;60.28;;;;;;;-144.87;100.00;61487.56;4934121;28;20045;-75
2023/05/10 00:19:12;;;;;;;227.23;57.13;;;;;;;-144.87;100.00;61487.56;4947026;28;20087;-74
2023/05/10 00:21:38;;;;;;;226.40;57.17;;;;;;;-144.87;100.00;61487.56;4949991;28;20126;-75
2023/05/10 00:24:05;;;;;;;213.45;56.90;;;;;;;-144.87;100.00;61487.56;4934459;28;20039;-76
2023/05/10 00:26:31;;;;;;;223.43;56.70;;;;;;;-144.87;100.00;61487.56;4949173;28;20054;-76
2023/05/10 00:28:58;;;;;;;263.23;58.42;;;;;;;-144.87;100.00;61487.56;4935914;28;20035;-76
2023/05/10 00:31:24;;;;;;;231.07;56.78;;;;;;;-144.87;100.00;61487.56;4935148;28;20074;-78
2023/05/10 00:33:50;;;;;;;233.88;56.05;;;;;;;-144.87;100.00;61487.56;4935227;28;20042;-76
2023/05/10 00:36:17;;;;;;;223.77;59.03;;;;;;;-144.87;100.00;61487.56;4950276;28;20535;-76
2023/05/10 00:38:43;;;;;;;267.08;63.63;;;;;;;-144.87;100.00;61487.56;4936111;28;20031;-75
2023/05/10 00:41:10;;;;;;;235.05;59.53;;;;;;;-144.87;100.00;61487.56;4918445;28;20051;-76
2023/05/10 00:43:39;;;;;;;246.27;62.33;;;;;;;-144.87;100.00;61487.56;4924418;28;20039;-75
2023/05/10 00:46:05;;;;;;;235.65;61.45;;;;;;;-144.87;100.00;61487.56;4965936;28;20035;-75
2023/05/10 00:48:32;;;;;;;244.45;62.08;;;;;;;-144.87;100.00;61487.56;4934357;28;20096;-74
2023/05/10 00:50:58;;;;;;;237.70;62.72;;;;;;;-144.87;100.00;61487.56;4935827;28;21343;-76
2023/05/10 00:53:25;;;;;;;264.63;68.75;;;;;;;-144.87;100.00;61487.56;4963667;28;20223;-76
2023/05/10 00:55:51;;;;;;;243.32;66.00;;;;;;;-144.87;100.00;61487.56;4939575;28;20077;-76
2023/05/10 00:58:17;;;;;;;272.08;72.10;;;;;;;-144.87;100.00;61487.56;4948752;28;21611;-76
2023/05/10 01:00:48;;;;;;;254.20;70.97;;;;;;;-144.87;100.00;61487.56;4929911;28;20086;-76
2023/05/10 01:03:14;;;;;;;264.85;72.80;;;;;;;-144.87;100.00;61487.56;4958847;28;20045;-75
2023/05/10 01:05:41;;;;;;;284.63;75.47;;;;;;;-144.87;100.00;61487.56;4968087;28;20718;-75
2023/05/10 01:08:08;;;;;;;296.02;78.55;;;;;;;-144.87;100.00;61487.56;4934350;28;20066;-75
2023/05/10 01:10:35;;;;;;;300.90;81.93;;;;;;;-144.87;100.00;61487.56;4933198;28;20113;-76
2023/05/10 01:13:03;;;;;;;386.77;83.28;;;;;;;-144.87;100.00;61487.56;4966704;28;20125;-76
2023/05/10 01:15:31;;;;;;;353.10;76.90;;;;;;;-144.87;100.00;61487.56;4958240;28;20275;-78
2023/05/10 01:17:58;;;;;;;437.17;80.78;;;;;;;-144.87;100.00;61487.56;4948628;28;20122;-77
2023/05/10 01:20:25;;;;;;;502.60;84.93;;;;;;;-144.87;100.00;61487.56;4918481;28;20038;-77
2023/05/10 01:23:25;;;;;;;374.83;79.45;;;;;;;-144.87;100.00;61487.56;4959637;28;20413;-78
2023/05/10 01:26:31;;;;;;;375.98;76.22;;;;;;;-144.87;100.00;61487.56;4935134;28;20449;-77
2023/05/10 01:29:29;;;;;;;330.52;75.03;;;;;;;-144.87;100.00;61487.56;4934750;28;20034;-75
2023/05/10 01:32:07;;;;;;;335.33;73.50;;;;;;;-144.87;100.00;61487.56;4949906;28;20034;-77
2023/05/10 01:34:48;;;;;;;306.40;68.65;;;;;;;-144.87;100.00;61487.56;4947703;28;20064;-76
2023/05/10 01:37:22;;;;;;;333.52;72.55;;;;;;;-144.87;100.00;61487.56;4945465;28;20407;-77
2023/05/10 01:40:29;;;;;;;332.45;70.88;;;;;;;-144.87;100.00;61487.56;4948451;28;20030;-76
2023/05/10 01:43:04;;;;;;;323.85;71.97;;;;;;;-144.87;100.00;61487.56;4949413;28;20106;-76
2023/05/10 01:45:55;;;;;;;368.85;72.40;;;;;;;-144.87;100.00;61487.56;4950367;28;20026;-76
2023/05/10 01:48:22;;;;;;;344.10;71.00;;;;;;;-144.87;100.00;61487.56;4961254;28;20113;-76
2023/05/10 01:50:51;;;;;;;369.80;71.80;;;;;;;-144.87;100.00;61487.56;4933122;28;20023;-76
2023/05/10 01:53:19;;;;;;;336.70;73.45;;;;;;;-144.87;100.00;61487.56;4940609;28;20027;-75
2023/05/10 01:55:48;;;;;;;354.90;73.65;;;;;;;-144.87;100.00;61487.56;4943800;28;20492;-76
2023/05/10 01:58:27;;;;;;;357.73;75.22;;;;;;;-144.87;100.00;61487.56;4932192;28;20035;-76
2023/05/10 02:00:55;;;;;;;402.77;73.25;;;;;;;-144.87;100.00;61487.56;4917575;28;20047;-76
2023/05/10 02:03:24;;;;;;;420.27;73.82;;;;;;;-144.87;100.00;61487.56;4964548;28;20049;-76
2023/05/10 02:05:52;;;;;;;428.40;74.15;;;;;;;-144.87;100.00;61487.56;4966185;28;20038;-76
2023/05/10 02:08:22;;;;;;;378.67;69.82;;;;;;;-144.87;100.00;61487.56;4960558;28;20027;-76
2023/05/10 02:10:51;;;;;;;394.83;72.43;;;;;;;-144.87;100.00;61487.56;4950036;28;21138;-76
2023/05/10 02:13:18;;;;;;;390.75;73.28;;;;;;;-144.87;100.00;61487.56;4934087;28;20136;-77
2023/05/10 02:15:48;;;;;;;384.23;66.90;;;;;;;-144.87;100.00;61487.56;4947101;28;20093;-76
2023/05/10 02:18:15;;;;;;;355.30;66.57;;;;;;;-144.87;100.00;61487.56;4943241;28;20052;-75
2023/05/10 02:20:44;;;;;;;381.45;69.15;;;;;;;-144.87;100.00;61487.56;4920867;28;20035;-75
2023/05/10 02:23:10;;;;;;;345.77;64.05;;;;;;;-144.87;100.00;61487.56;4946517;28;20093;-75
2023/05/10 02:25:38;;;;;;;370.50;63.45;;;;;;;-144.87;100.00;61487.56;4947439;28;20223;-76
2023/05/10 02:28:06;;;;;;;354.50;63.63;;;;;;;-144.87;100.00;61487.56;4966165;28;20045;-76
2023/05/10 02:30:33;;;;;;;341.13;61.85;;;;;;;-144.87;100.00;61487.56;4948702;28;20027;-76
2023/05/10 02:33:00;;;;;;;360.65;62.78;;;;;;;-144.87;100.00;61487.56;4945578;28;20598;-74
2023/05/10 02:35:27;;;;;;;384.48;67.05;;;;;;;-144.87;100.00;61487.56;4928513;28;20528;-76
2023/05/10 02:37:54;;;;;;;362.23;66.05;;;;;;;-144.87;100.00;61487.56;4934888;28;20138;-77
2023/05/10 02:40:22;;;;;;;389.13;69.53;;;;;;;-144.87;100.00;61487.56;4945808;28;20038;-77
2023/05/10 02:42:49;;;;;;;384.65;72.90;;;;;;;-144.87;100.00;61487.56;4958011;28;20046;-77
2023/05/10 02:45:19;;;;;;;390.15;74.60;;;;;;;-144.87;100.00;61487.56;4969336;28;20152;-74
2023/05/10 02:47:46;;;;;;;402.27;75.20;;;;;;;-144.87;100.00;61487.56;4951843;28;20042;-75
2023/05/10 02:50:12;;;;;;;410.70;72.93;;;;;;;-144.87;100.00;61487.56;4949892;28;20046;-75
2023/05/10 02:52:53;;;;;;;360.17;72.38;;;;;;;-144.87;100.00;61487.56;4934568;28;20046;-75
2023/05/10 02:55:25;;;;;;;399.55;76.05;;;;;;;-144.87;100.00;61487.56;4944817;28;20031;-74
2023/05/10 02:57:56;;;;;;;394.85;75.30;;;;;;;-144.87;100.00;61487.56;4933356;28;20084;-76
2023/05/10 03:00:22;;;;;;;373.73;77.75;;;;;;;-144.87;100.00;61487.56;4945744;28;20338;-75
2023/05/10 03:02:48;;;;;;;408.65;81.13;;;;;;;-144.87;100.00;61487.56;4948472;28;20050;-76
2023/05/10 03:05:15;;;;;;;377.30;75.55;;;;;;;-144.87;100.00;61487.56;4930773;28;20097;-74
2023/05/10 03:07:41;;;;;;;393.23;76.32;;;;;;;-144.87;100.00;61487.56;4955000;28;20043;-76
2023/05/10 03:10:08;;;;;;;355.40;69.45;;;;;;;-144.87;100.00;61487.56;4949902;28;20030;-76
2023/05/10 03:13:04;;;;;;;357.52;66.97;;;;;;;-144.87;100.00;61487.56;4948639;28;20039;-76
2023/05/10 03:15:37;;;;;;;360.02;70.57;;;;;;;-144.87;100.00;61487.56;4945762;28;20031;-76
2023/05/10 03:18:07;;;;;;;355.15;66.50;;;;;;;-144.87;100.00;61487.56;4950809;28;20031;-75
2023/05/10 03:20:51;;;;;;;389.45;71.95;;;;;;;-144.87;100.00;61487.56;4951157;28;20041;-75
2023/05/10 03:23:51;;;;;;;393.48;73.85;;;;;;;-144.87;100.00;61487.56;4917836;28;20489;-73
2023/05/10 03:26:25;;;;;;;373.10;67.55;;;;;;;-144.87;100.00;61487.56;4945296;28;20049;-76
2023/05/10 03:28:55;;;;;;;342.42;68.20;;;;;;;-144.87;100.00;61487.56;4947510;28;20035;-77
2023/05/10 03:31:21;;;;;;;378.90;74.82;;;;;;;-144.87;100.00;61487.56;4942669;28;20026;-74
2023/05/10 03:33:51;;;;;;;357.92;71.10;;;;;;;-144.87;100.00;61487.56;4944165;28;20031;-74
2023/05/10 03:36:23;;;;;;;367.52;71.63;;;;;;;-144.87;100.00;61487.56;4940531;28;20500;-77
2023/05/10 03:38:49;;;;;;;362.25;71.63;;;;;;;-144.87;100.00;61487.56;4934424;28;20042;-75
2023/05/10 03:41:16;;;;;;;380.73;72.07;;;;;;;-144.87;100.00;61487.56;4962804;28;20042;-76
2023/05/10 03:43:42;;;;;;;350.77;75.03;;;;;;;-144.87;100.00;61487.56;4947679;28;20569;-75
2023/05/10 03:46:08;;;;;;;347.20;73.50;;;;;;;-144.87;100.00;61487.56;4920599;28;20039;-75
2023/05/10 03:48:35;;;;;;;328.48;74.43;;;;;;;-144.87;100.00;61487.56;4952903;28;20118;-76
2023/05/10 03:51:01;;;;;;;343.65;74.18;;;;;;;-144.87;100.00;61487.56;4933847;28;20039;-75
2023/05/10 03:53:27;;;;;;;324.45;72.97;;;;;;;-144.87;100.00;61487.56;4948171;28;20101;-76
2023/05/10 03:55:53;;;;;;;329.55;78.28;;;;;;;-144.87;100.00;61487.56;4951077;28;20034;-76
2023/05/10 03:58:20;;;;;;;323.45;75.40;;;;;;;-144.87;100.00;61487.56;4952314;28;20516;-75
2023/05/10 04:00:46;;;;;;;329.15;79.45;;;;;;;-144.87;100.00;61487.56;4949475;28;20564;-76
2023/05/10 04:03:13;;;;;;;320.15;73.70;;;;;;;-144.87;100.00;61487.56;4947104;28;20066;-76
2023/05/10 04:05:40;;;;;;;325.98;79.78;;;;;;;-144.87;100.00;61487.56;4951918;28;20043;-76
2023/05/10 04:08:06;;;;;;;344.48;78.82;;;;;;;-144.87;100.00;61487.56;4919882;28;20116;-75
2023/05/10 04:10:33;;;;;;;358.35;79.00;;;;;;;-144.87;100.00;61487.56;4960803;28;20471;-76
2023/05/10 04:12:59;;;;;;;397.83;85.68;;;;;;;-144.87;100.00;61487.56;4942302;28;20042;-76
2023/05/10 04:15:25;;;;;;;333.52;77.03;;;;;;;-144.87;100.00;61487.56;4939131;28;20062;-77
2023/05/10 04:17:51;;;;;;;374.00;77.32;;;;;;;-144.87;100.00;61487.56;4952180;28;20039;-76
2023/05/10 04:20:18;;;;;;;410.05;80.05;;;;;;;-144.87;100.00;61487.56;4935261;28;20950;-75
2023/05/10 04:22:44;;;;;;;401.58;86.35;;;;;;;-144.87;100.00;61487.56;4967808;28;20240;-75
2023/05/10 04:25:11;;;;;;;369.42;88.63;;;;;;;-144.87;100.00;61487.56;4965016;28;20076;-75
2023/05/10 04:27:38;;;;;;;393.67;90.18;;;;;;;-144.87;100.00;61487.56;4949691;28;20038;-73
2023/05/10 04:30:05;;;;;;;385.20;93.15;;;;;;;-144.87;100.00;61487.56;4965496;28;20066;-75
2023/05/10 04:32:32;;;;;;;386.55;91.55;;;;;;;-144.87;100.00;61487.56;4968560;28;20101;-75
2023/05/10 04:34:58;;;;;;;360.30;93.88;;;;;;;-144.87;100.00;61487.56;4932085;28;20042;-76
2023/05/10 04:37:25;;;;;;;331.98;93.13;;;;;;;-144.87;100.00;61487.56;4950416;28;20081;-75
2023/05/10 04:39:51;;;;;;;335.30;89.80;;;;;;;-144.87;100.00;61487.56;4950273;28;20121;-75
2023/05/10 04:42:17;;;;;;;334.00;85.00;;;;;;;-144.87;100.00;61487.56;4959328;28;20043;-75
2023/05/10 04:44:44;;;;;;;338.13;83.30;;;;;;;-144.87;100.00;61487.56;4946100;28;20054;-74
2023/05/10 04:47:11;;;;;;;341.52;82.03;;;;;;;-144.87;100.00;61487.56;4953726;28;20035;-75
2023/05/10 04:49:37;;;;;;;342.42;78.82;;;;;;;-144.87;100.00;61487.56;4949444;28;20039;-75
2023/05/10 04:52:04;;;;;;;371.23;80.97;;;;;;;-144.87;100.00;61487.56;4968954;28;20035;-76
2023/05/10 04:54:30;;;;;;;367.33;82.07;;;;;;;-144.87;100.00;61487.56;4948550;28;20034;-75
2023/05/10 04:56:56;;;;;;;343.48;80.20;;;;;;;-144.87;100.00;61487.56;4949875;28;20102;-75
2023/05/10 04:59:22;;;;;;;309.52;76.28;;;;;;;-144.87;100.00;61487.56;4949214;28;20052;-74
2023/05/10 05:01:49;;;;;;;256.10;69.18;;;;;;;-144.87;100.00;61487.56;4932312;28;20046;-74
2023/05/10 05:04:15;;;;;;;261.85;72.43;;;;;;;-144.87;100.00;61487.56;4949645;28;20066;-74
2023/05/10 05:06:41;;;;;;;264.55;70.47;;;;;;;-144.87;100.00;61487.56;4945472;28;20038;-74
2023/05/10 05:09:08;;;;;;;227.02;65.93;;;;;;;-144.87;100.00;61487.56;4964764;28;20039;-75
2023/05/10 05:11:36;;;;;;;239.73;66.10;;;;;;;-144.87;100.00;61487.56;4947655;28;20105;-74
2023/05/10 05:14:02;;;;;;;256.67;65.13;;;;;;;-144.87;100.00;61487.56;4946430;28;20054;-75
2023/05/10 05:16:31;;;;;;;242.38;63.65;;;;;;;-144.87;100.00;61487.56;4948660;28;20031;-74
2023/05/10 05:18:57;;;;;;;229.63;63.17;;;;;;;-144.87;100.00;61487.56;4947094;28;20077;-77
2023/05/10 05:21:26;;;;;;;214.57;63.08;;;;;;;-144.87;100.00;61487.56;4947309;28;20039;-75
2023/05/10 05:23:52;;;;;;;218.20;62.78;;;;;;;-144.87;100.00;61487.56;4940564;28;20050;-76
2023/05/10 05:26:19;;;;;;;230.57;62.70;;;;;;;-144.87;100.00;61487.56;4944377;28;20120;-74
2023/05/10 05:28:45;;;;;;;245.25;63.63;;;;;;;-144.87;100.00;61487.56;4962572;28;20077;-76
2023/05/10 05:31:11;;;;;;;233.40;60.67;;;;;;;-144.87;100.00;61487.56;4963032;28;20046;-76
2023/05/10 05:33:38;;;;;;;200.95;55.83;;;;;;;-144.87;100.00;61487.56;4935007;28;20512;-76
2023/05/10 05:36:05;;;;;;;185.30;53.17;;;;;;;-144.87;100.00;61487.56;4940282;28;20514;-76
2023/05/10 05:38:31;;;;;;;146.20;45.28;;;;;;;-144.87;100.00;61487.56;4927028;28;20380;-75
2023/05/10 05:40:58;;;;;;;153.50;45.90;;;;;;;-144.87;100.00;61487.56;4959494;28;20042;-76
2023/05/10 05:43:24;;;;;;;169.15;45.05;;;;;;;-144.87;100.00;61487.56;4945464;28;20038;-76
2023/05/10 05:45:53;;;;;;;159.52;45.42;;;;;;;-144.87;100.00;61487.56;4966161;28;20184;-76
2023/05/10 05:48:20;;;;;;;156.40;44.95;;;;;;;-144.87;100.00;61487.56;4948043;28;20130;-75
2023/05/10 05:50:46;;;;;;;128.82;43.05;;;;;;;-144.87;100.00;61487.56;4949020;28;20080;-75
2023/05/10 05:53:12;;;;;;;104.63;37.78;;;;;;;-144.87;100.00;61487.56;4932370;28;20031;-76
2023/05/10 05:55:39;;;;;;;100.15;37.13;;;;;;;-144.87;100.00;61487.56;4963634;28;20118;-76
2023/05/10 05:58:05;;;;;;;81.47;32.97;;;;;;;-144.87;100.00;61487.56;4969516;28;20035;-77
2023/05/10 06:00:31;;;;;;;73.88;31.60;;;;;;;-144.87;100.00;61487.56;4966272;28;20054;-74
2023/05/10 06:02:57;;;;;;;79.53;31.75;;;;;;;-144.87;100.00;61487.56;4935012;28;20060;-75
2023/05/10 06:05:24;;;;;;;70.43;30.48;;;;;;;-144.87;100.00;61487.56;4942817;28;20038;-75
2023/05/10 06:07:50;;;;;;;74.03;30.80;;;;;;;-144.87;100.00;61487.56;4958885;28;20046;-74
2023/05/10 06:10:16;;;;;;;69.80;30.38;;;;;;;-144.87;100.00;61487.56;4932282;28;20034;-74
2023/05/10 06:12:42;;;;;;;70.13;30.25;;;;;;;-144.87;100.00;61487.56;4966668;28;20046;-74
2023/05/10 06:15:09;;;;;;;53.97;27.42;;;;;;;-144.87;100.00;61487.56;4960769;28;20043;-74
2023/05/10 06:17:36;;;;;;;55.83;25.63;;;;;;;-144.87;100.00;61487.56;4960101;28;20066;-75
2023/05/10 06:20:02;;;;;;;55.97;26.67;;;;;;;-144.87;100.00;61487.56;4951557;28;20204;-75
2023/05/10 06:22:28;;;;;;;56.25;27.98;;;;;;;-144.87;100.00;61487.56;4935734;28;20073;-75
2023/05/10 06:24:55;;;;;;;61.55;27.65;;;;;;;-144.87;100.00;61487.56;4929847;28;20046;-75
2023/05/10 06:27:21;;;;;;;63.22;28.10;;;;;;;-144.87;100.00;61487.56;4951234;28;20089;-76
2023/05/10 06:29:47;;;;;;;56.40;27.80;;;;;;;-144.87;100.00;61487.56;4930368;28;20043;-75
2023/05/10 06:32:13;;;;;;;56.38;25.95;;;;;;;-144.87;100.00;61487.56;4931277;28;20133;-75
2023/05/10 06:34:40;;;;;;;58.63;26.50;;;;;;;-144.87;100.00;61487.56;4964985;28;20061;-74
2023/05/10 06:37:06;;;;;;;53.88;25.98;;;;;;;-144.87;100.00;61487.56;4950167;28;20046;-76
2023/05/10 06:39:33;;;;;;;44.05;23.27;;;;;;;-144.87;100.00;61487.56;4939693;28;20046;-76
2023/05/10 06:41:59;;;;;;;51.53;24.58;;;;;;;-144.87;100.00;61487.56;4935523;29;20043;-75
2023/05/10 06:44:31;;;;;;;48.75;23.50;;;;;;;-144.87;100.00;61487.56;4939349;28;20038;-73
2023/05/10 06:46:58;;;;;;;45.17;23.00;;;;;;;-144.87;100.00;61487.56;4955050;28;20046;-75
2023/05/10 06:49:24;;;;;;;44.13;22.33;;;;;;;-144.87;100.00;61487.56;4934789;28;20038;-75
2023/05/10 06:51:50;;;;;;;46.05;24.13;;;;;;;-144.87;100.00;61487.56;4962991;28;20039;-75
2023/05/10 06:54:17;;;;;;;39.00;21.20;;;;;;;-144.87;100.00;61487.56;4943890;28;20043;-76
2023/05/10 06:56:45;;;;;;;33.80;20.70;;;;;;;-144.87;100.00;61487.56;4934700;28;20065;-75
2023/05/10 06:59:13;;;;;;;37.53;20.48;;;;;;;-144.87;100.00;61487.56;4960285;28;20102;-76
2023/05/10 07:01:40;;;;;;;29.85;18.58;;;;;;;-144.87;100.00;61487.56;4930395;28;20051;-75
2023/05/10 07:04:07;;;;;;;29.98;19.10;;;;;;;-144.87;100.00;61487.56;4934052;28;20059;-75
2023/05/10 07:06:33;;;;;;;29.58;18.30;;;;;;;-144.87;100.00;61487.56;4949154;28;20467;-75
2023/05/10 07:09:00;;;;;;;33.67;19.25;;;;;;;-144.87;100.00;61487.56;4949606;28;20500;-74
2023/05/10 07:11:26;;;;;;;33.30;18.98;;;;;;;-144.87;100.00;61487.56;4947834;28;20042;-75
2023/05/10 07:13:52;;;;;;;27.95;18.00;;;;;;;-144.87;100.00;61487.56;4961748;28;20062;-76
2023/05/10 07:16:19;;;;;;;30.55;17.17;;;;;;;-144.87;100.00;61487.56;4947033;28;20035;-73
2023/05/10 07:18:45;;;;;;;31.92;19.23;;;;;;;-144.87;100.00;61487.56;4952867;28;20127;-74
2023/05/10 07:21:11;;;;;;;32.80;18.73;;;;;;;-144.87;100.00;61487.56;4955551;28;20038;-74
2023/05/10 07:23:38;;;;;;;30.90;18.88;;;;;;;-144.87;100.00;61487.56;4972183;28;20052;-74
2023/05/10 07:26:04;;;;;;;31.42;18.65;;;;;;;-144.87;100.00;61487.56;4951830;28;20039;-73
2023/05/10 07:28:30;;;;;;;32.78;18.35;;;;;;;-144.87;100.00;61487.56;4951408;28;20050;-76
2023/05/10 07:30:56;;;;;;;38.90;19.25;;;;;;;-144.87;100.00;61487.56;4935685;28;20354;-75
2023/05/10 07:33:23;;;;;;;33.60;17.58;;;;;;;-144.87;100.00;61487.56;4970441;28;20038;-75
2023/05/10 07:35:50;;;;;;;33.20;17.80;;;;;;;-144.87;100.00;61487.56;4933357;28;20042;-75
2023/05/10 07:38:17;;;;;;;28.85;16.77;;;;;;;-144.87;100.00;61487.56;4968187;28;20150;-75
2023/05/10 07:40:43;;;;;;;29.02;17.27;;;;;;;-144.87;100.00;61487.56;4948056;28;20098;-74
2023/05/10 07:43:09;;;;;;;28.55;16.98;;;;;;;-144.87;100.00;61487.56;4953651;28;20440;-75
2023/05/10 07:45:36;;;;;;;28.90;17.35;;;;;;;-144.87;100.00;61487.56;4966904;28;20070;-75
2023/05/10 07:48:02;;;;;;;27.33;16.65;;;;;;;-144.87;100.00;61487.56;4930869;28;20096;-74
2023/05/10 07:50:28;;;;;;;30.42;17.88;;;;;;;-144.87;100.00;61487.56;4967886;28;20121;-74
2023/05/10 07:52:55;;;;;;;33.75;17.35;;;;;;;-144.87;100.00;61487.56;4949608;28;20109;-75
2023/05/10 07:55:22;;;;;;;27.20;17.70;;;;;;;-144.87;100.00;61487.56;4954359;28;20054;-76
2023/05/10 07:57:48;;;;;;;30.40;15.68;;;;;;;-144.87;100.00;61487.56;4955737;28;20045;-74
2023/05/10 08:00:18;;;;;;;26.35;16.95;;;;;;;-144.87;100.00;61487.56;4932502;28;20121;-74
2023/05/10 08:02:45;;;;;;;29.90;16.42;;;;;;;-144.87;100.00;61487.56;4938908;28;20082;-75
2023/05/10 08:05:11;;;;;;;29.45;17.90;;;;;;;-144.87;100.00;61487.56;4952154;28;20039;-74
2023/05/10 08:07:37;;;;;;;26.58;16.40;;;;;;;-144.87;100.00;61487.56;4968181;28;20081;-74
2023/05/10 08:10:04;;;;;;;28.90;17.23;;;;;;;-144.87;100.00;61487.56;4939319;28;20077;-74
2023/05/10 08:12:30;;;;;;;26.85;17.13;;;;;;;-144.87;100.00;61487.56;4943905;28;20035;-76
2023/05/10 08:14:57;;;;;;;25.27;16.25;;;;;;;-144.87;100.00;61487.56;4966924;28;20043;-75
2023/05/10 08:17:23;;;;;;;26.05;16.05;;;;;;;-144.87;100.00;61487.56;4953126;28;20531;-75
2023/05/10 08:19:49;;;;;;;27.02;16.08;;;;;;;-144.87;100.00;61487.56;4968200;28;20117;-75
2023/05/10 08:22:16;;;;;;;25.02;15.30;;;;;;;-144.87;100.00;61487.56;4951461;28;20118;-75
2023/05/10 08:24:42;;;;;;;25.67;16.10;;;;;;;-144.87;100.00;61487.56;4967860;28;20086;-75
2023/05/10 08:27:09;;;;;;;24.60;15.80;;;;;;;-144.87;100.00;61487.56;4919565;29;20433;-75
2023/05/10 08:29:35;;;;;;;25.52;15.75;;;;;;;-144.87;100.00;61487.56;4963569;28;20043;-75
2023/05/10 08:32:01;;;;;;;27.67;17.15;;;;;;;-144.87;100.00;61487.56;4975969;28;20049;-74
2023/05/10 08:34:28;;;;;;;25.42;15.45;;;;;;;-144.87;100.00;61487.56;4971904;28;20039;-73
2023/05/10 08:36:54;;;;;;;24.73;15.93;;;;;;;-144.87;100.00;61487.56;4995177;28;20043;-76
2023/05/10 08:39:20;;;;;;;25.33;15.90;;;;;;;-144.87;100.00;61487.56;4991929;28;20043;-76
2023/05/10 08:41:48;;;;;;;23.35;15.50;;;;;;;-144.87;100.00;61487.56;4972668;28;20023;-75
2023/05/10 08:44:16;;;;;;;27.15;15.95;;;;;;;-144.87;100.00;61487.56;4958803;28;20035;-75
2023/05/10 08:46:46;;;;;;;25.55;15.50;;;;;;;-144.87;100.00;61487.56;4958761;28;20035;-75
2023/05/10 08:49:18;;;;;;;26.00;16.20;;;;;;;-144.87;100.00;61487.56;4958361;28;20114;-75
2023/05/10 08:51:49;;;;;;;20.60;13.95;;;;;;;-144.87;100.00;61487.56;4957061;28;20265;-75
2023/05/10 08:54:16;;;;;;;24.10;15.32;;;;;;;-144.87;100.00;61487.56;4974385;28;20492;-75
2023/05/10 08:56:42;;;;;;;22.27;15.32;;;;;;;-144.87;100.00;61487.56;4934083;28;20035;-75
2023/05/10 08:59:08;;;;;;;22.33;14.02;;;;;;;-144.87;100.00;61487.56;4936058;28;20046;-74
2023/05/10 09:01:36;;;;;;;20.15;12.70;;;;;;;-144.87;100.00;61487.56;4947124;28;20065;-75
2023/05/10 09:04:04;;;;;;;21.50;12.88;;;;;;;-144.87;100.00;61487.56;4970492;28;20061;-74
2023/05/10 09:06:32;;;;;;;18.88;12.55;;;;;;;-144.87;100.00;61487.56;4949504;28;20141;-75
2023/05/10 09:08:58;;;;;;;19.80;13.13;;;;;;;-144.87;100.00;61487.56;4967007;28;20043;-75
2023/05/10 09:11:25;;;;;;;19.23;12.68;;;;;;;-144.87;100.00;61487.56;4950993;28;20173;-76
2023/05/10 09:13:51;;;;;;;18.42;12.02;;;;;;;-144.87;100.00;61487.56;4937815;28;20051;-75
2023/05/10 09:16:18;;;;;;;17.75;10.48;;;;;;;-144.87;100.00;61487.56;4936478;28;20346;-74
2023/05/10 09:18:44;;;;;;;16.50;10.02;;;;;;;-144.87;100.00;61487.56;4941633;28;20039;-75
2023/05/10 09:21:10;;;;;;;15.88;9.80;;;;;;;-144.87;100.00;61487.56;4951816;28;20666;-74
2023/05/10 09:23:37;;;;;;;17.48;9.55;;;;;;;-144.87;100.00;61487.56;4938075;28;20039;-75
2023/05/10 09:26:06;;;;;;;17.58;8.93;;;;;;;-144.87;100.00;61487.56;4968636;28;20382;-75
2023/05/10 09:28:34;;;;;;;14.15;10.02;;;;;;;-144.87;100.00;61487.56;4934000;28;20065;-75
2023/05/10 09:31:00;;;;;;;14.55;9.93;;;;;;;-144.87;100.00;61487.56;4943383;28;20365;-74
2023/05/10 09:33:27;;;;;;;11.63;8.65;;;;;;;-144.87;100.00;61487.56;4951159;28;20031;-74
2023/05/10 09:35:53;;;;;;;14.02;9.13;;;;;;;-144.87;100.00;61487.56;4950273;28;20046;-76
2023/05/10 09:38:20;;;;;;;13.60;9.50;;;;;;;-144.87;100.00;61487.56;4947813;28;20039;-75
2023/05/10 09:40:56;;;;;;;13.88;9.35;;;;;;;-144.87;100.00;61487.56;4966371;28;20093;-75
2023/05/10 09:43:23;;;;;;;11.90;8.18;;;;;;;-144.87;100.00;61487.56;4968436;28;20121;-74
2023/05/10 09:45:50;;;;;;;12.23;7.55;;;;;;;-144.87;100.00;61487.56;4948537;28;20038;-75
2023/05/10 09:48:16;;;;;;;11.52;7.72;;;;;;;-144.87;100.00;61487.56;4959796;28;20508;-74
2023/05/10 09:50:42;;;;;;;10.88;7.07;;;;;;;-144.87;100.00;61487.56;4931505;28;20035;-75
2023/05/10 09:53:09;;;;;;;10.10;7.38;;;;;;;-144.87;100.00;61487.56;4965130;28;20031;-75
2023/05/10 09:55:39;;;;;;;10.93;7.60;;;;;;;-144.87;100.00;61487.56;4952583;28;20042;-75
2023/05/10 09:58:09;;;;;;;9.47;7.40;;;;;;;-144.87;100.00;61487.56;4939290;28;20049;-74
2023/05/10 10:00:37;;;;;;;14.25;7.82;;;;;;;-144.87;100.00;61487.56;4952623;28;20479;-74
2023/05/10 10:03:14;;;;;;;11.85;6.53;;;;;;;;;;5084436;27;20437;-74
2023/05/10 10:05:42;;;;;;;9.57;6.75;;;;;;;;;;5062853;28;20055;-76
2023/05/10 10:08:09;;;;;;;12.55;7.43;;;;;;;;;;5066493;28;20094;-76
2023/05/10 10:10:35;;;;;;;11.55;7.68;;;;;;;;;;5061520;28;20025;-75
2023/05/10 10:13:01;;;;;;;15.13;7.88;;;;;;;;;;5060051;28;20115;-75
2023/05/10 10:15:27;;;;;;;12.05;8.20;;;;;;;;;;5060476;28;20055;-75
2023/05/10 10:17:54;;;;;;;12.60;8.07;;;;;;;;;;5070448;28;20032;-76
2023/05/10 10:20:21;;;;;;;13.25;8.52;;;;;;;;;;5059410;28;20029;-75
2023/05/10 10:22:48;;;;;;;13.80;8.13;;;;;;;;;;5072702;28;20097;-74
2023/05/10 10:25:19;;;;;;;13.45;8.30;;;;;;;;;;5064618;28;20033;-75
2023/05/10 10:27:54;;;;;;;15.65;8.02;;;;;;;;;;5065294;28;20104;-74
2023/05/10 10:30:36;;;;;;;13.48;8.45;;;;;;;;;;5066899;28;20519;-74
2023/05/10 10:33:11;;;;;;;12.50;8.43;;;;;;;;;;5073164;28;20040;-75
2023/05/10 10:35:38;;;;;;;13.40;7.90;;;;;;;;;;5060421;28;20035;-76
2023/05/10 10:38:04;;;;;;;12.13;8.05;;;;;;;;;;5073481;28;20032;-75
2023/05/10 10:40:31;;;;;;;13.35;8.27;;;;;;;;;;5066461;28;20032;-75
2023/05/10 10:42:58;;;;;;;15.05;8.30;;;;;;;;;;5082884;28;20024;-75
2023/05/10 10:45:26;;;;;;;12.05;8.00;;;;;;;;;;5080370;28;20021;-75
2023/05/10 10:48:11;;;;;;;12.63;8.50;;;;;;;;;;5080597;28;20048;-75
2023/05/10 10:50:46;;;;;;;15.20;8.32;;;;;;;;;;5077983;28;20036;-75
2023/05/10 10:53:12;;;;;;;12.82;8.82;;;;;;;;;;5056889;28;20116;-76
2023/05/10 10:55:48;;;;;;;12.27;8.10;;;;;;;;;;5070402;28;20029;-76
2023/05/10 10:58:34;;;;;;;14.07;8.70;;;;;;;;;;5083035;28;20051;-76
2023/05/10 11:01:10;;;;;;;14.45;7.88;;;;;;;;;;5068591;28;20041;-75
2023/05/10 11:03:37;;;;;;;11.90;7.88;;;;;;;;;;5063310;28;20060;-74
2023/05/10 11:06:03;;;;;;;12.32;7.38;;;;;;;;;;5065744;28;20036;-74
2023/05/10 11:08:30;;;;;;;10.65;7.57;;;;;;;;;;5069288;28;20271;-74
2023/05/10 11:10:59;;;;;;;11.43;7.03;;;;;;;;;;5066610;28;20021;-74
2023/05/10 11:13:29;;;;;;;11.50;6.43;;;;;;;;;;5073209;28;20019;-73
2023/05/10 11:15:57;;;;;;;10.45;6.45;;;;;;;;;;5052988;28;20022;-74